Airfield :
LOGIN :

Register | Disclaimer

   EN    FR    IT 

 










Legend :    VFR   Marginal VFR   IFR   Intensive IFR   Very Intensive IFR
Visi :
Ceiling :
>= 8 km
>= 3000ft
5 to 8 km
1000 to 3000 ft
1500m to 5 km
500 to 1000 ft
800 to 1500m
200 to 500 ft
< 800m
< 200 ft
Symbols :   Thunderstorms  Fog  Heavy snow  Heavy precipitations  Wind > 20 kt
SIGMETs :     Misc.  Thunderstorms  Icing  Turbulence  Mountain Waves  Volcanic Ashes






- Airport Elevation : 499 ft
- IATA code : TLS


LFBO - Toulouse / Blagnac

CURRENT METAR :
  • 240200Z AUTO 36009KT 9999 -RA SCT005/// SCT012/// BKN018/// ///CB 04/03 Q1000 TEMPO 4000 RA BKN007

EXPIRED METARs :
  • 240130Z AUTO 36007KT 8000 -RA BKN004/// BKN014/// BKN019/// ///CB 04/04 Q1000 TEMPO 4000 RA BKN007
  • 240100Z AUTO 01004KT 9000 -SNRA FEW006/// BKN031/// OVC037/// ///CB 04/04 Q1000 TEMPO 4000 RA BKN007
  • 240030Z AUTO 05004KT 350V100 9999 -SNRA FEW033/// BKN039/// OVC049/// ///CB 04/03 Q1000 TEMPO 4000 RA BKN007
  • 240000Z AUTO 09003KT 060V120 6000 -SNRA FEW008/// SCT012/// OVC034/// ///CB 04/04 Q1000 TEMPO 4000 RA BKN007
  • 232330Z AUTO 11004KT 9999 -RA FEW013/// BKN039/// BKN045/// ///TCU 05/04 Q1000 TEMPO 4000 RA BKN007

TAF TAF LFBO
Valid from the 24 at 00:00 until the 25 at 06:00 UTC


232300Z 2400/2506 VRB03KT 9999 SCT010 BKN019
TEMPO 2400/2404 4000 RA BKN007
BECMG 2404/2406 29010KT BKN011
PROB40
TEMPO 2404/2409 3000 RADZ BKN008
BECMG 2409/2411 SCT025 BKN040
TEMPO 2413/2424 27016G27KT 4000 SHRA BKN013 SCT030TCU
TEMPO 2500/2506 4000 SHRA BKN008 SCT015TCU
ATIS : +33 5 62 74 66 36



MET'MAP, your aeronautical weather chart ! - Copyright ORBIFLY December 2007 - Disclaimer

ORBIFLY MET'MAP TEAM :

Programming & Development : Alexandra Zaïnal
Concept & original design : Baudouin d'Aumeries
Assistance for programming : Marc-Olivier Méhu
Technical & hardware support : Manuel Goepfert

Contact : metmap@orbifly.com




SOURCES & CREDITS :

   NOAA